• Join FlightAware (Why Join?)
  • Login
  • US Flag 
07:37AM EDT


 

Airport Tracker/Info


-or-


 

Live Flight TrackerFlight Track Log ✈ ASQ5810 ✈ 18-Jul-2013 ✈ KCLT - KEWR

Flight Track Log - Related Links

Times and Time Zones

All times are in EDT time to prevent confusion due to time zone crossing. See the ASQ5810 flight status page for this flight to view local times or setup timezone preferences in your user account.

Time Position Orientation Groundspeed Altitude Reporting Facility
EDT Latitude Longitude Course Direction KTS MPH feet Rate Location/Type
11:51AM 35.1700 -80.9339 176° South 160 184 2,300  Level Atlanta Center
11:52AM 35.1189 -80.8953 148° Southeast 233 268 3,900 1,680 Climbing Atlanta Center
11:53AM 35.0961 -80.8200 110° East 274 315 5,800 1,860 Climbing Atlanta Center
11:54AM 35.1131 -80.7533 73° East 263 303 7,500 2,040 Climbing Atlanta Center
11:55AM 35.2261 -80.5481 30° Northeast  Level FlightAware Approximate
11:55AM 35.1528 -80.6756 58° Northeast 290 334 9,700  Level Atlanta Center
11:56AM 35.3057 -80.4912 30° Northeast  Level FlightAware Approximate
11:56AM 35.1964 -80.5950 56° Northeast 285 328 11,000  Level Atlanta Center
11:57AM 35.2458 -80.5014 57° Northeast 301 346 12,000 1,200 Climbing Atlanta Center
11:58AM 35.2994 -80.4047 56° Northeast 327 376 13,400 1,320 Climbing Atlanta Center
11:59AM 35.3547 -80.3006 57° Northeast 335 386 14,700 1,260 Climbing Atlanta Center
12:01PM 35.4550 -80.0594 63° Northeast 341 392 17,800 1,200 Climbing Washington Center
12:02PM 35.4794 -79.9639 73° East 329 379 18,800 900 Climbing Washington Center
12:03PM 35.5086 -79.8456 73° East 335 386 19,600 780 Climbing Washington Center
12:04PM 35.5403 -79.7222 72° East 355 409 20,400 720 Climbing Washington Center
12:05PM 35.5714 -79.5986 73° East 366 421 21,100 780 Climbing Washington Center
12:06PM 35.6097 -79.4525 72° East 394 453 22,000 780 Climbing Washington Center
12:07PM 35.6486 -79.3444 66° East 394 453 22,700 720 Climbing Washington Center
12:08PM 35.7306 -79.2561 41° Northeast 384 442 23,500 720 Climbing Washington Center
12:09PM 35.8247 -79.1811 33° Northeast 379 436 24,200 720 Climbing Washington Center
12:10PM 35.9167 -79.1058 34° Northeast 389 448 25,000 780 Climbing Washington Center
12:11PM 36.0108 -79.0303 33° Northeast 399 459 25,800 780 Climbing Washington Center
12:12PM 36.1047 -78.9547 33° Northeast 399 459 26,600 720 Climbing Washington Center
12:13PM 36.1986 -78.8789 33° Northeast 405 466 27,300 720 Climbing Washington Center
12:14PM 36.2925 -78.8003 34° Northeast 405 466 28,100 780 Climbing Washington Center
12:15PM 36.3883 -78.7244 32° Northeast 405 466 28,900 720 Climbing Washington Center
12:16PM 36.4822 -78.6456 34° Northeast 405 466 29,600 720 Climbing Washington Center
12:17PM 36.5847 -78.5589 34° Northeast 404 465 30,400 780 Climbing Washington Center
12:18PM 36.6803 -78.4822 33° Northeast 404 465 31,200 720 Climbing Washington Center
12:19PM 36.7656 -78.4103 34° Northeast 409 471 31,900 720 Climbing Washington Center
12:20PM 36.8592 -78.3306 34° Northeast 409 471 32,700 780 Climbing Washington Center
12:21PM 36.9656 -78.2408 34° Northeast 409 471 33,500 720 Climbing Washington Center
12:22PM 37.0525 -78.1683 34° Northeast 409 471 34,200 720 Climbing Washington Center
12:23PM 37.1461 -78.0933 33° Northeast 404 465 35,000 360 Climbing Washington Center
12:24PM 37.2417 -78.0078 35° Northeast 409 471 35,000  Level Washington Center
12:25PM 37.3433 -77.9247 33° Northeast 414 476 35,000  Level Washington Center
12:26PM 37.4450 -77.8414 33° Northeast 426 490 35,000  Level Washington Center
12:27PM 37.5447 -77.7553 34° Northeast 426 490 35,000  Level Washington Center
12:28PM 37.6422 -77.6689 35° Northeast 426 490 35,000  Level Washington Center
12:29PM 37.7417 -77.5850 34° Northeast 431 496 35,000  Level Washington Center
12:30PM 37.8411 -77.5008 34° Northeast 431 496 35,000  Level Washington Center
12:31PM 37.9383 -77.4164 34° Northeast 431 496 35,000  Level Washington Center
12:32PM 38.0439 -77.3239 35° Northeast 431 496 35,000  Level Washington Center
12:33PM 38.1431 -77.2419 33° Northeast 431 496 35,000  Level Washington Center
12:34PM 38.2319 -77.1592 36° Northeast 431 496 35,000  Level Washington Center
12:35PM 38.3394 -77.0661 34° Northeast 431 496 35,000  Level Washington Center
12:36PM 38.4383 -76.9806 34° Northeast 431 496 35,000  Level Washington Center
12:37PM 38.5353 -76.8950 35° Northeast 431 496 35,000  Level Washington Center
12:38PM 38.6342 -76.8061 35° Northeast 431 496 35,000  Level Washington Center
12:39PM 38.7308 -76.7147 36° Northeast 431 496 35,000  Level Washington Center
12:40PM 38.8214 -76.6122 41° Northeast 431 496 35,000  Level Washington Center
12:41PM 38.9119 -76.5094 41° Northeast 431 496 35,000 -840 Level Washington Center
12:42PM 39.0022 -76.4008 43° Northeast 431 496 33,300 -2,100 Descending Washington Center
12:43PM 39.0969 -76.2922 42° Northeast 442 509 30,800 -2,160 Descending Washington Center
12:45PM 39.1796 -76.1755 44° Northeast  Level FlightAware Approximate
12:45PM 39.2750 -76.0875 44° Northeast 448 516 26,900  Level Washington Center
12:46PM 39.3628 -75.9808 43° Northeast 443 510 27,000  Climbing Washington Center
12:47PM 39.4550 -75.8739 42° Northeast 443 510 27,000 -60 Level Washington Center
12:48PM 39.5467 -75.7639 43° Northeast 443 510 26,900 -1,140 Descending Washington Center
12:49PM 39.6406 -75.6536 42° Northeast 443 510 24,800 -2,460 Descending Washington Center
12:50PM 39.7322 -75.5456 42° Northeast 443 510 22,000 -3,120 Descending Washington Center
12:51PM 39.8197 -75.4403 43° Northeast 436 502 18,700 -3,180 Descending Washington Center
12:52PM 39.9050 -75.3372 43° Northeast 425 489 15,700 -2,820 Descending Washington Center
12:53PM 39.9839 -75.2394 44° Northeast 410 472 13,100 -2,280 Descending Washington Center
12:54PM 40.0586 -75.1469 43° Northeast 378 435 11,200 -1,080 Descending Washington Center
12:55PM 40.1500 -75.0333 44° Northeast 343 395 10,900 -600 Descending New York TRACON
12:56PM 40.2167 -74.9667 37° Northeast 293 337 10,000 -1,320 Descending New York TRACON
12:57PM 40.2667 -74.8833 52° Northeast 285 328 8,300 -1,200 Descending New York TRACON
12:58PM 40.2833 -74.8000 75° East 278 320 7,600 -900 Descending New York TRACON
12:59PM 40.3000 -74.7000 78° East 284 327 6,600 -840 Descending New York TRACON
01:00PM 40.3167 -74.6000 78° East 279 321 6,000 -300 Descending New York TRACON
01:01PM 40.3667 -74.5500 37° Northeast 267 307 6,000  Level New York TRACON
01:02PM 40.4500 -74.5500 360° North 266 306 6,000  Level New York TRACON
01:03PM 40.5167 -74.5500 360° North 272 313 6,000  Level New York TRACON
01:04PM 40.6000 -74.5500 360° North 269 310 6,000  Level New York TRACON
01:06PM 40.6667 -74.5500 360° North 267 307 6,000  Level New York TRACON
01:07PM 40.7500 -74.5500 360° North 263 303 6,000 -120 Level New York TRACON
01:08PM 40.8167 -74.5333 11° North 270 311 5,800 -540 Descending New York TRACON
01:09PM 40.8500 -74.4500 62° Northeast 271 312 5,000 -420 Descending New York TRACON
01:10PM 40.9000 -74.3667 52° Northeast 259 298 5,000 -300 Level New York TRACON
01:11PM 40.9167 -74.2833 75° East 275 316 4,400 -540 Descending New York TRACON
01:11PM 40.9000 -74.1833 102° East 271 312 4,000 -660 Descending New York TRACON
01:13PM 40.8667 -74.1167 123° Southeast 230 265 3,100 -840 Descending New York TRACON